sensor_id;sensor_type;location;lat;lon;timestamp;pressure;altitude;pressure_sealevel;temperature;humidity
21547;BME280;41275;51.912;4.388;2023-04-22T00:02:58;100817.84;;;15.77;49.13
21547;BME280;41275;51.912;4.388;2023-04-22T00:08:21;100815.97;;;15.73;49.63
21547;BME280;41275;51.912;4.388;2023-04-22T00:13:42;100811.09;;;15.64;49.97
21547;BME280;41275;51.912;4.388;2023-04-22T00:19:04;100812.13;;;15.58;50.10
21547;BME280;41275;51.912;4.388;2023-04-22T00:24:25;100806.25;;;15.56;49.63
21547;BME280;41275;51.912;4.388;2023-04-22T00:29:47;100815.00;;;15.52;50.34
21547;BME280;41275;51.912;4.388;2023-04-22T00:35:08;100818.47;;;15.47;50.22
21547;BME280;41275;51.912;4.388;2023-04-22T00:40:29;100809.63;;;15.41;50.13
21547;BME280;41275;51.912;4.388;2023-04-22T00:45:51;100812.00;;;15.38;50.53
21547;BME280;41275;51.912;4.388;2023-04-22T00:51:13;100816.00;;;15.35;50.33
21547;BME280;41275;51.912;4.388;2023-04-22T00:56:34;100812.00;;;15.33;50.70
21547;BME280;41275;51.912;4.388;2023-04-22T01:01:57;100822.38;;;15.29;50.38
21547;BME280;41275;51.912;4.388;2023-04-22T01:07:19;100817.84;;;15.30;50.95
21547;BME280;41275;51.912;4.388;2023-04-22T01:12:40;100807.13;;;15.25;51.01
21547;BME280;41275;51.912;4.388;2023-04-22T01:18:02;100804.19;;;15.21;51.08
21547;BME280;41275;51.912;4.388;2023-04-22T01:23:23;100800.97;;;15.19;50.68
21547;BME280;41275;51.912;4.388;2023-04-22T01:28:44;100809.19;;;15.12;50.75
21547;BME280;41275;51.912;4.388;2023-04-22T01:34:06;100805.69;;;15.07;51.16
21547;BME280;41275;51.912;4.388;2023-04-22T01:39:28;100792.06;;;15.03;50.96
21547;BME280;41275;51.912;4.388;2023-04-22T01:44:50;100804.84;;;15.01;51.25
21547;BME280;41275;51.912;4.388;2023-04-22T01:50:11;100794.13;;;14.91;51.24
21547;BME280;41275;51.912;4.388;2023-04-22T01:55:32;100805.31;;;14.93;50.70
21547;BME280;41275;51.912;4.388;2023-04-22T02:00:55;100801.34;;;14.95;50.71
21547;BME280;41275;51.912;4.388;2023-04-22T02:06:17;100801.34;;;14.95;51.13
21547;BME280;41275;51.912;4.388;2023-04-22T02:11:38;100796.53;;;14.92;50.90
21547;BME280;41275;51.912;4.388;2023-04-22T02:16:59;100794.13;;;14.91;50.96
21547;BME280;41275;51.912;4.388;2023-04-22T02:22:22;100789.31;;;14.93;50.66
21547;BME280;41275;51.912;4.388;2023-04-22T02:27:43;100773.34;;;14.93;50.98
21547;BME280;41275;51.912;4.388;2023-04-22T02:33:05;100783.50;;;15.01;51.19
21547;BME280;41275;51.912;4.388;2023-04-22T02:38:26;100778.47;;;15.05;51.42
21547;BME280;41275;51.912;4.388;2023-04-22T02:43:47;100774.78;;;15.06;50.94
21547;BME280;41275;51.912;4.388;2023-04-22T02:49:08;100774.78;;;15.06;50.78
21547;BME280;41275;51.912;4.388;2023-04-22T02:54:30;100764.41;;;15.09;50.89
21547;BME280;41275;51.912;4.388;2023-04-22T02:59:51;100765.22;;;15.15;50.63
21547;BME280;41275;51.912;4.388;2023-04-22T03:05:13;100754.59;;;15.20;50.73
21547;BME280;41275;51.912;4.388;2023-04-22T03:10:34;100755.44;;;15.26;50.70
21547;BME280;41275;51.912;4.388;2023-04-22T03:15:55;100747.75;;;15.34;50.70
21547;BME280;41275;51.912;4.388;2023-04-22T03:21:16;100746.44;;;15.42;51.11
21547;BME280;41275;51.912;4.388;2023-04-22T03:26:38;100740.59;;;15.50;50.57
21547;BME280;41275;51.912;4.388;2023-04-22T03:31:59;100739.00;;;15.49;50.54
21547;BME280;41275;51.912;4.388;2023-04-22T03:37:20;100726.19;;;15.51;50.81
21547;BME280;41275;51.912;4.388;2023-04-22T03:42:41;100719.84;;;15.57;50.29
21547;BME280;41275;51.912;4.388;2023-04-22T03:48:03;100720.38;;;15.64;50.67
21547;BME280;41275;51.912;4.388;2023-04-22T03:53:24;100723.63;;;15.66;50.48
21547;BME280;41275;51.912;4.388;2023-04-22T03:58:45;100709.19;;;15.67;50.31
21547;BME280;41275;51.912;4.388;2023-04-22T04:04:06;100701.75;;;15.69;50.07
21547;BME280;41275;51.912;4.388;2023-04-22T04:09:27;100709.25;;;15.73;50.00
21547;BME280;41275;51.912;4.388;2023-04-22T04:14:49;100707.38;;;15.68;50.66
21547;BME280;41275;51.912;4.388;2023-04-22T04:20:11;100702.47;;;15.60;50.70
21547;BME280;41275;51.912;4.388;2023-04-22T04:25:32;100695.28;;;15.55;50.80
21547;BME280;41275;51.912;4.388;2023-04-22T04:30:59;100694.75;;;15.58;50.56
21547;BME280;41275;51.912;4.388;2023-04-22T04:36:20;100692.69;;;15.65;50.67
21547;BME280;41275;51.912;4.388;2023-04-22T04:41:41;100688.13;;;15.71;50.90
21547;BME280;41275;51.912;4.388;2023-04-22T04:47:03;100681.50;;;15.79;50.79
21547;BME280;41275;51.912;4.388;2023-04-22T04:52:25;100679.91;;;15.88;50.91
21547;BME280;41275;51.912;4.388;2023-04-22T04:57:49;100675.09;;;15.95;50.62
21547;BME280;41275;51.912;4.388;2023-04-22T05:03:11;100675.66;;;16.02;51.18
21547;BME280;41275;51.912;4.388;2023-04-22T05:08:32;100676.47;;;16.13;50.78
21547;BME280;41275;51.912;4.388;2023-04-22T05:13:53;100686.88;;;16.19;50.21
21547;BME280;41275;51.912;4.388;2023-04-22T05:19:14;100682.63;;;16.24;50.33
21547;BME280;41275;51.912;4.388;2023-04-22T05:24:36;100681.00;;;16.23;50.30
21547;BME280;41275;51.912;4.388;2023-04-22T05:29:57;100696.47;;;16.31;50.07
21547;BME280;41275;51.912;4.388;2023-04-22T05:35:18;100695.69;;;16.30;50.31
21547;BME280;41275;51.912;4.388;2023-04-22T05:40:41;100701.81;;;16.26;50.13
21547;BME280;41275;51.912;4.388;2023-04-22T05:46:03;100691.13;;;16.31;50.35
21547;BME280;41275;51.912;4.388;2023-04-22T05:51:24;100686.34;;;16.43;50.08
21547;BME280;41275;51.912;4.388;2023-04-22T05:56:48;100692.47;;;16.59;50.42
21547;BME280;41275;51.912;4.388;2023-04-22T06:02:09;100671.06;;;16.69;50.30
21547;BME280;41275;51.912;4.388;2023-04-22T06:07:34;100665.47;;;16.81;49.59
21547;BME280;41275;51.912;4.388;2023-04-22T06:12:55;100676.38;;;16.95;49.49
21547;BME280;41275;51.912;4.388;2023-04-22T06:18:17;100668.59;;;17.03;49.49
21547;BME280;41275;51.912;4.388;2023-04-22T06:23:41;100677.38;;;17.19;49.32
21547;BME280;41275;51.912;4.388;2023-04-22T06:29:03;100674.63;;;17.34;48.88
21547;BME280;41275;51.912;4.388;2023-04-22T06:34:25;100663.84;;;17.50;48.65
21547;BME280;41275;51.912;4.388;2023-04-22T06:39:46;100668.53;;;17.73;48.33
21547;BME280;41275;51.912;4.388;2023-04-22T06:45:10;100665.97;;;17.97;47.87
21547;BME280;41275;51.912;4.388;2023-04-22T06:50:32;100656.13;;;18.22;47.17
21547;BME280;41275;51.912;4.388;2023-04-22T06:55:54;100652.06;;;18.29;47.19
21547;BME280;41275;51.912;4.388;2023-04-22T07:01:15;100650.72;;;18.32;46.87
21547;BME280;41275;51.912;4.388;2023-04-22T07:06:37;100649.47;;;18.48;46.45
21547;BME280;41275;51.912;4.388;2023-04-22T07:11:58;100649.81;;;18.71;46.07
21547;BME280;41275;51.912;4.388;2023-04-22T07:17:19;100649.59;;;18.91;45.58
21547;BME280;41275;51.912;4.388;2023-04-22T07:22:42;100664.63;;;19.11;45.10
21547;BME280;41275;51.912;4.388;2023-04-22T07:28:03;100666.91;;;19.23;44.65
21547;BME280;41275;51.912;4.388;2023-04-22T07:33:24;100670.44;;;19.18;44.34
21547;BME280;41275;51.912;4.388;2023-04-22T07:38:46;100663.34;;;19.27;44.07
21547;BME280;41275;51.912;4.388;2023-04-22T07:44:07;100651.41;;;19.76;43.77
21547;BME280;41275;51.912;4.388;2023-04-22T07:49:30;100653.38;;;20.22;42.78
21547;BME280;41275;51.912;4.388;2023-04-22T07:54:57;100630.91;;;20.46;41.75
21547;BME280;41275;51.912;4.388;2023-04-22T08:00:18;100614.94;;;20.68;41.09
21547;BME280;41275;51.912;4.388;2023-04-22T08:05:39;100621.59;;;20.71;40.69
21547;BME280;41275;51.912;4.388;2023-04-22T08:11:00;100623.69;;;20.74;40.13
21547;BME280;41275;51.912;4.388;2023-04-22T08:16:22;100630.47;;;20.99;39.58
21547;BME280;41275;51.912;4.388;2023-04-22T08:21:43;100627.94;;;21.16;39.68
21547;BME280;41275;51.912;4.388;2023-04-22T08:27:04;100632.31;;;21.26;39.57
21547;BME280;41275;51.912;4.388;2023-04-22T08:32:31;100630.31;;;21.68;38.62
21547;BME280;41275;51.912;4.388;2023-04-22T08:37:52;100628.19;;;21.78;38.06
21547;BME280;41275;51.912;4.388;2023-04-22T08:43:14;100621.88;;;22.05;36.94
21547;BME280;41275;51.912;4.388;2023-04-22T08:48:36;100599.38;;;22.33;36.33
21547;BME280;41275;51.912;4.388;2023-04-22T08:53:58;100595.56;;;22.34;34.66
21547;BME280;41275;51.912;4.388;2023-04-22T08:59:21;100579.16;;;22.52;33.50
21547;BME280;41275;51.912;4.388;2023-04-22T09:04:43;100549.50;;;22.52;32.98
21547;BME280;41275;51.912;4.388;2023-04-22T09:10:06;100560.88;;;22.41;33.32
21547;BME280;41275;51.912;4.388;2023-04-22T09:15:28;100554.72;;;22.58;33.59
21547;BME280;41275;51.912;4.388;2023-04-22T09:20:54;100546.81;;;22.61;33.53
21547;BME280;41275;51.912;4.388;2023-04-22T09:26:24;100567.66;;;22.38;33.56
21547;BME280;41275;51.912;4.388;2023-04-22T09:31:49;100557.16;;;22.28;34.07
21547;BME280;41275;51.912;4.388;2023-04-22T09:37:11;100594.63;;;22.38;33.38
21547;BME280;41275;51.912;4.388;2023-04-22T09:42:47;100614.63;;;22.86;33.08
21547;BME280;41275;51.912;4.388;2023-04-22T09:48:11;100612.81;;;23.30;33.31
21547;BME280;41275;51.912;4.388;2023-04-22T09:53:35;100623.31;;;23.40;32.85
21547;BME280;41275;51.912;4.388;2023-04-22T09:59:00;100619.03;;;23.47;32.36
21547;BME280;41275;51.912;4.388;2023-04-22T10:04:21;100607.75;;;23.54;32.52
21547;BME280;41275;51.912;4.388;2023-04-22T10:09:44;100603.75;;;23.25;32.63
21547;BME280;41275;51.912;4.388;2023-04-22T10:15:07;100621.38;;;22.66;33.90
21547;BME280;41275;51.912;4.388;2023-04-22T10:20:28;100614.28;;;22.39;34.10
21547;BME280;41275;51.912;4.388;2023-04-22T10:25:55;100621.88;;;22.05;34.53
21547;BME280;41275;51.912;4.388;2023-04-22T10:31:19;100633.22;;;21.94;35.60
21547;BME280;41275;51.912;4.388;2023-04-22T10:37:07;100624.94;;;21.68;36.55
21547;BME280;41275;51.912;4.388;2023-04-22T10:42:29;100604.91;;;21.24;37.64
21547;BME280;41275;51.912;4.388;2023-04-22T10:47:50;100608.25;;;21.07;38.45
21547;BME280;41275;51.912;4.388;2023-04-22T10:53:34;100607.56;;;20.74;39.64
21547;BME280;41275;51.912;4.388;2023-04-22T10:58:55;100597.28;;;20.48;40.00
21547;BME280;41275;51.912;4.388;2023-04-22T11:04:22;100612.41;;;19.98;41.14
21547;BME280;41275;51.912;4.388;2023-04-22T11:09:45;100624.50;;;19.81;41.94
21547;BME280;41275;51.912;4.388;2023-04-22T11:15:15;100657.28;;;19.59;42.28
21547;BME280;41275;51.912;4.388;2023-04-22T11:20:36;100647.63;;;19.58;43.24
21547;BME280;41275;51.912;4.388;2023-04-22T11:26:00;100635.16;;;19.86;43.31
21547;BME280;41275;51.912;4.388;2023-04-22T11:31:21;100640.22;;;19.88;43.34
21547;BME280;41275;51.912;4.388;2023-04-22T11:36:44;100608.97;;;19.78;43.64
21547;BME280;41275;51.912;4.388;2023-04-22T11:42:05;100641.25;;;19.54;44.23
21547;BME280;41275;51.912;4.388;2023-04-22T11:47:29;100634.13;;;19.45;44.32
21547;BME280;41275;51.912;4.388;2023-04-22T11:52:56;100643.84;;;19.59;44.27
21547;BME280;41275;51.912;4.388;2023-04-22T11:58:22;100607.03;;;19.65;44.73
21547;BME280;41275;51.912;4.388;2023-04-22T12:03:44;100638.44;;;19.65;44.67
21547;BME280;41275;51.912;4.388;2023-04-22T12:09:06;100653.00;;;19.58;44.91
21547;BME280;41275;51.912;4.388;2023-04-22T12:14:34;100614.53;;;19.06;46.10
21547;BME280;41275;51.912;4.388;2023-04-22T12:19:55;100610.56;;;19.23;46.30
21547;BME280;41275;51.912;4.388;2023-04-22T12:25:17;100617.66;;;19.13;46.41
21547;BME280;41275;51.912;4.388;2023-04-22T12:30:39;100607.94;;;19.18;46.40
21547;BME280;41275;51.912;4.388;2023-04-22T12:36:00;100614.63;;;19.20;46.32
21547;BME280;41275;51.912;4.388;2023-04-22T12:41:21;100602.97;;;19.30;46.14
21547;BME280;41275;51.912;4.388;2023-04-22T12:46:43;100616.75;;;19.42;45.82
21547;BME280;41275;51.912;4.388;2023-04-22T12:52:04;100615.13;;;19.60;45.84
21547;BME280;41275;51.912;4.388;2023-04-22T12:57:26;100615.44;;;19.77;45.54
21547;BME280;41275;51.912;4.388;2023-04-22T13:02:48;100625.94;;;19.55;45.64
21547;BME280;41275;51.912;4.388;2023-04-22T13:08:09;100643.22;;;19.68;45.76
21547;BME280;41275;51.912;4.388;2023-04-22T13:13:30;100642.25;;;19.58;45.41
21547;BME280;41275;51.912;4.388;2023-04-22T13:18:52;100647.53;;;19.45;45.66
21547;BME280;41275;51.912;4.388;2023-04-22T13:24:13;100631.81;;;19.38;45.39
21547;BME280;41275;51.912;4.388;2023-04-22T13:29:35;100625.78;;;19.27;45.88
21547;BME280;41275;51.912;4.388;2023-04-22T13:34:56;100630.72;;;19.20;46.31
21547;BME280;41275;51.912;4.388;2023-04-22T13:40:17;100646.59;;;19.17;46.08
21547;BME280;41275;51.912;4.388;2023-04-22T13:45:38;100634.34;;;19.10;46.02
21547;BME280;41275;51.912;4.388;2023-04-22T13:51:00;100642.78;;;18.99;46.24
21547;BME280;41275;51.912;4.388;2023-04-22T13:56:22;100653.44;;;19.04;46.45
21547;BME280;41275;51.912;4.388;2023-04-22T14:01:44;100649.25;;;19.17;46.09
21547;BME280;41275;51.912;4.388;2023-04-22T14:07:06;100652.81;;;19.12;46.36
21547;BME280;41275;51.912;4.388;2023-04-22T14:12:27;100664.03;;;18.95;46.48
21547;BME280;41275;51.912;4.388;2023-04-22T14:17:48;100662.44;;;18.65;47.14
21547;BME280;41275;51.912;4.388;2023-04-22T14:23:10;100668.59;;;18.65;47.24
21547;BME280;41275;51.912;4.388;2023-04-22T14:28:31;100671.66;;;18.54;47.31
21547;BME280;41275;51.912;4.388;2023-04-22T14:33:53;100677.19;;;18.04;48.49
21547;BME280;41275;51.912;4.388;2023-04-22T14:39:14;100686.47;;;17.78;48.77
21547;BME280;41275;51.912;4.388;2023-04-22T14:44:35;100699.47;;;17.45;49.34
21547;BME280;41275;51.912;4.388;2023-04-22T14:49:57;100694.81;;;16.96;49.96
21547;BME280;41275;51.912;4.388;2023-04-22T14:55:18;100701.81;;;16.87;50.16
21547;BME280;41275;51.912;4.388;2023-04-22T15:00:40;100688.66;;;17.01;50.08
21547;BME280;41275;51.912;4.388;2023-04-22T15:06:02;100698.50;;;17.15;50.22
21547;BME280;41275;51.912;4.388;2023-04-22T15:11:23;100705.13;;;17.28;49.76
21547;BME280;41275;51.912;4.388;2023-04-22T15:16:44;100699.25;;;17.31;49.45
21547;BME280;41275;51.912;4.388;2023-04-22T15:22:05;100702.16;;;17.35;49.29
21547;BME280;41275;51.912;4.388;2023-04-22T15:27:26;100687.13;;;17.44;48.84
21547;BME280;41275;51.912;4.388;2023-04-22T15:32:48;100676.16;;;17.95;48.63
21547;BME280;41275;51.912;4.388;2023-04-22T15:38:09;100684.38;;;18.72;47.84
21547;BME280;41275;51.912;4.388;2023-04-22T15:43:30;100683.41;;;19.73;46.61
21547;BME280;41275;51.912;4.388;2023-04-22T15:48:52;100678.50;;;20.45;45.55
21547;BME280;41275;51.912;4.388;2023-04-22T15:54:13;100681.91;;;20.51;44.19
21547;BME280;41275;51.912;4.388;2023-04-22T15:59:34;100677.88;;;20.81;43.59
21547;BME280;41275;51.912;4.388;2023-04-22T16:04:55;100679.06;;;20.75;42.82
21547;BME280;41275;51.912;4.388;2023-04-22T16:10:16;100695.81;;;21.13;41.84
21547;BME280;41275;51.912;4.388;2023-04-22T16:15:38;100700.47;;;20.66;41.79
21547;BME280;41275;51.912;4.388;2023-04-22T16:21:00;100698.59;;;20.94;42.12
21547;BME280;41275;51.912;4.388;2023-04-22T16:26:21;100715.50;;;21.77;41.07
21547;BME280;41275;51.912;4.388;2023-04-22T16:31:42;100706.81;;;22.03;39.68
21547;BME280;41275;51.912;4.388;2023-04-22T16:37:04;100707.09;;;21.79;39.51
21547;BME280;41275;51.912;4.388;2023-04-22T16:42:26;100702.09;;;21.36;39.90
21547;BME280;41275;51.912;4.388;2023-04-22T16:47:47;100705.28;;;20.97;40.25
21547;BME280;41275;51.912;4.388;2023-04-22T16:53:08;100696.09;;;20.56;40.83
21547;BME280;41275;51.912;4.388;2023-04-22T16:58:37;100701.63;;;21.06;40.43
21547;BME280;41275;51.912;4.388;2023-04-22T17:03:58;100709.56;;;22.57;38.70
21547;BME280;41275;51.912;4.388;2023-04-22T17:09:22;100697.69;;;23.81;36.99
21547;BME280;41275;51.912;4.388;2023-04-22T17:14:43;100701.97;;;24.08;35.90
21547;BME280;41275;51.912;4.388;2023-04-22T17:20:04;100701.38;;;23.67;35.41
21547;BME280;41275;51.912;4.388;2023-04-22T17:25:29;100696.06;;;23.45;35.69
21547;BME280;41275;51.912;4.388;2023-04-22T17:30:51;100686.09;;;24.06;34.66
21547;BME280;41275;51.912;4.388;2023-04-22T17:36:12;100698.78;;;24.79;33.61
21547;BME280;41275;51.912;4.388;2023-04-22T17:41:33;100694.91;;;24.97;32.83
21547;BME280;41275;51.912;4.388;2023-04-22T17:46:54;100701.69;;;25.03;33.01
21547;BME280;41275;51.912;4.388;2023-04-22T17:52:15;100710.81;;;24.60;32.85
21547;BME280;41275;51.912;4.388;2023-04-22T17:57:37;100708.03;;;23.96;33.60
21547;BME280;41275;51.912;4.388;2023-04-22T18:02:58;100711.19;;;24.15;31.94
21547;BME280;41275;51.912;4.388;2023-04-22T18:08:19;100709.78;;;24.09;31.42
21547;BME280;41275;51.912;4.388;2023-04-22T18:13:40;100714.25;;;21.84;33.49
21547;BME280;41275;51.912;4.388;2023-04-22T18:19:02;100708.75;;;20.70;35.13
21547;BME280;41275;51.912;4.388;2023-04-22T18:24:26;100715.16;;;20.22;36.80
21547;BME280;41275;51.912;4.388;2023-04-22T18:29:48;100713.91;;;19.63;37.91
21547;BME280;41275;51.912;4.388;2023-04-22T18:35:11;100718.78;;;19.13;38.70
21547;BME280;41275;51.912;4.388;2023-04-22T18:40:32;100723.97;;;18.80;40.05
21547;BME280;41275;51.912;4.388;2023-04-22T18:45:53;100736.44;;;18.61;40.53
21547;BME280;41275;51.912;4.388;2023-04-22T18:51:15;100746.63;;;18.30;41.45
21547;BME280;41275;51.912;4.388;2023-04-22T18:56:36;100761.00;;;18.05;41.90
21547;BME280;41275;51.912;4.388;2023-04-22T19:01:57;100774.16;;;17.91;42.65
21547;BME280;41275;51.912;4.388;2023-04-22T19:07:18;100769.69;;;17.81;43.04
21547;BME280;41275;51.912;4.388;2023-04-22T19:12:40;100776.94;;;17.71;43.37
21547;BME280;41275;51.912;4.388;2023-04-22T19:18:01;100779.09;;;17.63;43.77
21547;BME280;41275;51.912;4.388;2023-04-22T19:23:23;100777.53;;;17.52;43.76
21547;BME280;41275;51.912;4.388;2023-04-22T19:28:45;100785.88;;;17.46;43.87
21547;BME280;41275;51.912;4.388;2023-04-22T19:34:09;100778.66;;;17.36;44.60
21547;BME280;41275;51.912;4.388;2023-04-22T19:39:31;100766.13;;;17.26;44.55
21547;BME280;41275;51.912;4.388;2023-04-22T19:44:52;100775.50;;;17.24;44.91
21547;BME280;41275;51.912;4.388;2023-04-22T19:50:16;100777.38;;;17.18;45.20
21547;BME280;41275;51.912;4.388;2023-04-22T19:55:42;100776.59;;;17.17;45.43
21547;BME280;41275;51.912;4.388;2023-04-22T20:01:03;100778.97;;;17.24;46.12
21547;BME280;41275;51.912;4.388;2023-04-22T20:06:25;100774.41;;;17.30;46.38
21547;BME280;41275;51.912;4.388;2023-04-22T20:11:48;100768.00;;;17.26;46.05
21547;BME280;41275;51.912;4.388;2023-04-22T20:17:09;100769.31;;;17.28;46.61
21547;BME280;41275;51.912;4.388;2023-04-22T20:22:32;100759.44;;;17.24;46.68
21547;BME280;41275;51.912;4.388;2023-04-22T20:28:02;100749.28;;;17.21;47.04
21547;BME280;41275;51.912;4.388;2023-04-22T20:33:23;100753.84;;;17.20;46.60
21547;BME280;41275;51.912;4.388;2023-04-22T20:38:48;100739.41;;;17.16;47.21
21547;BME280;41275;51.912;4.388;2023-04-22T20:44:09;100734.63;;;17.08;47.52
21547;BME280;41275;51.912;4.388;2023-04-22T20:49:30;100741.88;;;17.02;47.52
21547;BME280;41275;51.912;4.388;2023-04-22T20:54:51;100746.69;;;16.95;47.87
21547;BME280;41275;51.912;4.388;2023-04-22T21:00:16;100744.03;;;16.85;48.38
21547;BME280;41275;51.912;4.388;2023-04-22T21:05:37;100749.66;;;16.78;48.65
21547;BME280;41275;51.912;4.388;2023-04-22T21:11:02;100748.03;;;16.72;48.37
21547;BME280;41275;51.912;4.388;2023-04-22T21:16:25;100752.81;;;16.70;48.60
21547;BME280;41275;51.912;4.388;2023-04-22T21:21:50;100748.03;;;16.67;48.81
21547;BME280;41275;51.912;4.388;2023-04-22T21:27:13;100741.91;;;16.66;49.02
21547;BME280;41275;51.912;4.388;2023-04-22T21:32:34;100739.47;;;16.65;49.21
21547;BME280;41275;51.912;4.388;2023-04-22T21:38:01;100734.41;;;16.63;49.12
21547;BME280;41275;51.912;4.388;2023-04-22T21:43:28;100744.03;;;16.59;48.97
21547;BME280;41275;51.912;4.388;2023-04-22T21:48:49;100735.72;;;16.61;49.37
21547;BME280;41275;51.912;4.388;2023-04-22T21:54:10;100739.47;;;16.65;49.25
21547;BME280;41275;51.912;4.388;2023-04-22T21:59:32;100753.66;;;16.71;49.52
21547;BME280;41275;51.912;4.388;2023-04-22T22:04:53;100749.66;;;16.73;49.78
21547;BME280;41275;51.912;4.388;2023-04-22T22:10:16;100745.63;;;16.71;49.56
21547;BME280;41275;51.912;4.388;2023-04-22T22:15:41;100750.16;;;16.70;49.20
21547;BME280;41275;51.912;4.388;2023-04-22T22:21:06;100749.41;;;16.75;49.69
21547;BME280;41275;51.912;4.388;2023-04-22T22:26:27;100748.31;;;16.76;49.03
21547;BME280;41275;51.912;4.388;2023-04-22T22:31:49;100742.19;;;16.75;49.67
21547;BME280;41275;51.912;4.388;2023-04-22T22:37:10;100745.09;;;16.74;49.43
21547;BME280;41275;51.912;4.388;2023-04-22T22:42:31;100749.63;;;16.68;49.63
21547;BME280;41275;51.912;4.388;2023-04-22T22:47:55;100735.72;;;16.61;49.83
21547;BME280;41275;51.912;4.388;2023-04-22T22:53:16;100729.03;;;16.58;49.57
21547;BME280;41275;51.912;4.388;2023-04-22T22:58:37;100728.25;;;16.53;49.87
21547;BME280;41275;51.912;4.388;2023-04-22T23:04:00;100730.16;;;16.47;49.56
21547;BME280;41275;51.912;4.388;2023-04-22T23:09:22;100721.03;;;16.38;49.93
21547;BME280;41275;51.912;4.388;2023-04-22T23:14:43;100730.41;;;16.35;49.99
21547;BME280;41275;51.912;4.388;2023-04-22T23:20:05;100728.00;;;16.34;50.15
21547;BME280;41275;51.912;4.388;2023-04-22T23:25:29;100720.00;;;16.24;50.35
21547;BME280;41275;51.912;4.388;2023-04-22T23:30:53;100705.31;;;16.16;50.44
21547;BME280;41275;51.912;4.388;2023-04-22T23:36:16;100711.44;;;16.11;50.92
21547;BME280;41275;51.912;4.388;2023-04-22T23:41:39;100692.47;;;16.03;50.98
21547;BME280;41275;51.912;4.388;2023-04-22T23:47:00;100681.50;;;15.99;50.84
21547;BME280;41275;51.912;4.388;2023-04-22T23:52:22;100688.75;;;16.04;51.30
21547;BME280;41275;51.912;4.388;2023-04-22T23:57:43;100678.59;;;16.16;51.37
